Time;durP1;ratioP1;P1;durP2;ratioP2;P2;SDS_P1;SDS_P2;PMS_P1;PMS_P2;Temp;Humidity;BMP_temperature;BMP_pressure;BME280_temperature;BME280_humidity;BME280_pressure;Samples;Min_cycle;Max_cycle;Signal;HPM_P1;HPM_P2
2022/09/08 00:00:13;;;;;;;2.05;0.50;;;19.40;80.40;;;;;;5005861;28;20041;-63
2022/09/08 00:02:39;;;;;;;0.90;0.30;;;19.50;80.50;;;;;;5007336;28;20525;-59
2022/09/08 00:05:06;;;;;;;0.80;0.35;;;19.50;80.30;;;;;;5012919;28;20065;-61
2022/09/08 00:07:32;;;;;;;0.68;0.60;;;19.50;80.20;;;;;;5008917;28;20441;-61
2022/09/08 00:09:58;;;;;;;0.88;0.50;;;19.40;80.20;;;;;;5010703;28;20030;-60
2022/09/08 00:12:25;;;;;;;1.42;0.75;;;19.50;80.40;;;;;;5007784;28;20236;-60
2022/09/08 00:14:51;;;;;;;1.30;0.50;;;19.40;80.50;;;;;;5011262;28;20338;-61
2022/09/08 00:17:18;;;;;;;1.45;0.45;;;19.40;80.50;;;;;;5011099;28;20745;-62
2022/09/08 00:19:44;;;;;;;1.15;0.50;;;19.50;80.50;;;;;;5009073;28;20073;-61
2022/09/08 00:22:12;;;;;;;3.40;0.73;;;19.50;80.60;;;;;;5004133;28;20048;-60
2022/09/08 00:24:37;;;;;;;1.45;0.70;;;19.50;80.80;;;;;;5009645;28;20029;-61
2022/09/08 00:27:03;;;;;;;2.88;0.70;;;19.50;80.80;;;;;;5008296;28;20091;-59
2022/09/08 00:29:29;;;;;;;2.30;0.80;;;19.50;80.80;;;;;;5007524;28;20037;-63
2022/09/08 00:31:54;;;;;;;2.33;0.68;;;19.50;80.70;;;;;;5009227;28;20253;-61
2022/09/08 00:34:20;;;;;;;1.55;0.90;;;19.50;80.80;;;;;;5007693;28;20382;-62
2022/09/08 00:36:46;;;;;;;0.85;0.52;;;19.50;80.80;;;;;;5007984;28;20045;-60
2022/09/08 00:39:11;;;;;;;0.65;0.55;;;19.50;80.50;;;;;;5008773;28;20502;-60
2022/09/08 00:41:37;;;;;;;0.65;0.55;;;19.40;80.50;;;;;;5009226;28;20048;-61
2022/09/08 00:44:35;;;;;;;0.80;0.60;;;19.40;80.60;;;;;;5008179;28;20041;-61
2022/09/08 00:47:03;;;;;;;1.60;0.50;;;19.30;81.80;;;;;;5008039;28;20121;-60
2022/09/08 00:49:29;;;;;;;1.55;0.60;;;19.20;80.80;;;;;;5010509;28;20120;-60
2022/09/08 00:51:57;;;;;;;0.90;0.70;;;19.20;81.20;;;;;;5008946;28;20052;-60
2022/09/08 00:54:24;;;;;;;1.40;0.80;;;19.10;81.70;;;;;;5008974;28;20115;-60
2022/09/08 00:56:50;;;;;;;2.15;1.00;;;19.10;82.00;;;;;;5010205;28;20040;-61
2022/09/08 00:59:20;;;;;;;2.10;1.00;;;19.10;82.00;;;;;;5006992;28;20038;-61
2022/09/08 01:01:46;;;;;;;1.80;1.08;;;19.00;82.00;;;;;;5010786;28;20033;-61
2022/09/08 01:04:12;;;;;;;2.80;1.27;;;19.00;82.00;;;;;;5006930;28;20091;-61
2022/09/08 01:12:45;;;;;;;2.35;1.42;;;18.90;83.60;;;;;;5009312;28;20048;-60
2022/09/08 01:15:23;;;;;;;2.17;1.55;;;18.80;82.40;;;;;;5010596;28;20144;-61
2022/09/08 01:17:51;;;;;;;2.42;1.80;;;18.80;83.80;;;;;;5007020;28;20034;-60
2022/09/08 01:20:21;;;;;;;1.60;1.50;;;18.70;83.50;;;;;;5005833;28;22072;-62
2022/09/08 01:22:53;;;;;;;2.55;1.40;;;18.70;83.80;;;;;;5010335;28;20087;-61
2022/09/08 01:25:39;;;;;;;1.70;1.60;;;18.80;84.10;;;;;;5007435;28;20042;-62
2022/09/08 01:28:14;;;;;;;3.25;1.63;;;18.80;84.20;;;;;;5008633;28;20045;-61
2022/09/08 01:30:42;;;;;;;3.15;1.60;;;18.80;84.00;;;;;;5006011;28;20037;-62
2022/09/08 01:33:12;;;;;;;2.80;1.67;;;18.80;84.10;;;;;;5008918;28;20080;-61
2022/09/08 01:35:38;;;;;;;2.53;1.60;;;18.90;84.20;;;;;;5008897;28;20386;-61
2022/09/08 01:38:05;;;;;;;1.88;1.58;;;18.90;84.10;;;;;;5010030;28;20033;-61
2022/09/08 01:40:31;;;;;;;2.42;1.58;;;18.90;84.30;;;;;;5005607;28;20066;-63
2022/09/08 01:42:57;;;;;;;3.13;1.52;;;18.90;84.20;;;;;;5009636;28;20108;-63
2022/09/08 01:45:23;;;;;;;1.52;1.27;;;18.90;84.10;;;;;;5006398;28;20049;-60
2022/09/08 01:47:49;;;;;;;1.65;1.40;;;18.90;84.00;;;;;;5009259;28;20030;-60
2022/09/08 01:50:15;;;;;;;2.03;1.42;;;19.00;84.00;;;;;;5009178;28;22265;-60
2022/09/08 01:52:41;;;;;;;5.55;1.40;;;19.00;84.00;;;;;;5007250;28;20041;-59
2022/09/08 01:55:06;;;;;;;1.58;1.48;;;19.00;84.00;;;;;;5009734;28;20121;-61
2022/09/08 01:57:32;;;;;;;1.50;1.40;;;19.00;83.90;;;;;;5008473;28;20034;-61
2022/09/08 01:59:57;;;;;;;2.53;1.50;;;19.10;83.90;;;;;;5007517;28;20026;-60
2022/09/08 02:02:23;;;;;;;1.67;1.50;;;19.10;84.00;;;;;;5005609;28;20460;-61
2022/09/08 02:04:48;;;;;;;1.55;1.45;;;19.10;84.00;;;;;;5011379;28;20133;-61
2022/09/08 02:07:14;;;;;;;1.75;1.52;;;19.10;84.00;;;;;;5008561;28;20037;-59
2022/09/08 02:09:40;;;;;;;3.13;1.75;;;19.10;83.90;;;;;;5008670;28;20215;-61
2022/09/08 02:12:05;;;;;;;2.97;2.00;;;19.20;84.00;;;;;;5005747;28;20037;-62
2022/09/08 02:14:31;;;;;;;2.15;1.83;;;19.20;84.00;;;;;;5010309;28;20048;-62
2022/09/08 02:16:56;;;;;;;3.00;1.80;;;19.20;84.10;;;;;;5009526;28;20049;-61
2022/09/08 02:19:22;;;;;;;1.98;1.85;;;19.20;84.10;;;;;;5005400;28;20403;-61
2022/09/08 02:21:48;;;;;;;2.00;1.90;;;19.10;84.10;;;;;;5003176;28;20119;-62
2022/09/08 02:24:13;;;;;;;3.75;2.00;;;19.20;84.30;;;;;;5007260;28;20067;-62
2022/09/08 02:26:40;;;;;;;2.15;1.95;;;19.20;84.30;;;;;;5008064;28;20037;-60
2022/09/08 02:29:08;;;;;;;2.35;1.90;;;19.20;84.40;;;;;;5009800;28;20405;-60
2022/09/08 02:31:35;;;;;;;2.10;1.90;;;19.20;84.40;;;;;;5004424;28;20045;-61
2022/09/08 02:34:01;;;;;;;2.30;2.10;;;19.20;84.40;;;;;;5008899;28;20062;-61
2022/09/08 02:36:27;;;;;;;3.17;1.95;;;19.20;84.40;;;;;;5009947;28;20129;-61
2022/09/08 02:38:54;;;;;;;2.95;1.88;;;19.20;84.50;;;;;;5009727;28;20551;-61
2022/09/08 02:41:25;;;;;;;3.20;2.10;;;19.20;84.30;;;;;;5008921;28;20203;-62
2022/09/08 02:43:51;;;;;;;2.45;1.92;;;19.20;84.50;;;;;;5010474;28;20410;-61
2022/09/08 02:46:17;;;;;;;3.55;1.77;;;19.20;84.00;;;;;;5007725;28;20056;-61
2022/09/08 02:48:43;;;;;;;1.92;1.73;;;19.20;84.00;;;;;;5007345;28;20453;-61
2022/09/08 02:51:12;;;;;;;2.88;1.83;;;19.20;83.80;;;;;;5005348;28;20033;-62
2022/09/08 02:53:38;;;;;;;3.63;1.60;;;19.20;84.00;;;;;;5007625;28;20074;-62
2022/09/08 02:56:06;;;;;;;2.08;1.40;;;19.20;83.80;;;;;;5007999;28;20375;-62
2022/09/08 02:58:32;;;;;;;3.95;1.60;;;19.20;83.80;;;;;;5008310;28;20552;-62
2022/09/08 03:00:58;;;;;;;1.73;1.33;;;19.20;83.70;;;;;;5007678;28;20038;-61
2022/09/08 03:03:24;;;;;;;1.92;1.20;;;19.20;83.60;;;;;;5011369;28;20072;-61
2022/09/08 03:05:50;;;;;;;2.03;1.23;;;19.20;83.70;;;;;;5013395;28;20034;-59
2022/09/08 03:08:16;;;;;;;1.30;1.20;;;19.20;83.80;;;;;;5009997;28;20504;-61
2022/09/08 03:10:42;;;;;;;1.45;1.17;;;19.20;83.90;;;;;;5008601;28;20497;-60
2022/09/08 03:13:08;;;;;;;1.40;1.20;;;19.20;83.80;;;;;;5008483;28;20048;-61
2022/09/08 03:15:34;;;;;;;2.22;1.13;;;19.20;83.80;;;;;;5012479;28;20440;-61
2022/09/08 03:18:03;;;;;;;1.88;1.10;;;19.20;83.70;;;;;;5010369;28;20058;-61
2022/09/08 03:20:31;;;;;;;2.30;0.90;;;19.20;83.60;;;;;;5010254;28;20041;-61
2022/09/08 03:22:58;;;;;;;1.45;1.00;;;19.10;83.50;;;;;;5012564;28;20467;-61
2022/09/08 03:25:24;;;;;;;0.80;0.80;;;19.20;83.60;;;;;;5012699;28;20048;-60
2022/09/08 03:27:49;;;;;;;0.90;0.80;;;19.10;83.60;;;;;;5012312;28;20045;-61
2022/09/08 03:30:16;;;;;;;1.33;0.77;;;19.10;83.80;;;;;;5009534;28;20171;-59
2022/09/08 03:32:43;;;;;;;0.73;0.60;;;19.00;83.60;;;;;;5010862;28;20034;-61
2022/09/08 03:35:11;;;;;;;2.50;0.80;;;19.10;83.70;;;;;;5015408;28;20033;-59
2022/09/08 03:37:40;;;;;;;1.10;0.60;;;19.00;83.60;;;;;;5012502;28;20034;-61
2022/09/08 03:40:09;;;;;;;1.10;0.75;;;19.00;83.60;;;;;;5011146;28;20121;-61
2022/09/08 03:42:36;;;;;;;0.70;0.60;;;18.90;83.60;;;;;;5011715;28;20405;-59
2022/09/08 03:45:08;;;;;;;0.80;0.55;;;18.90;83.70;;;;;;5010662;28;20041;-59
2022/09/08 03:47:34;;;;;;;0.73;0.50;;;18.90;84.00;;;;;;5011545;28;20516;-60
2022/09/08 03:50:01;;;;;;;1.50;0.50;;;18.90;83.80;;;;;;5011681;28;20041;-60
2022/09/08 03:52:27;;;;;;;1.30;0.40;;;18.90;83.80;;;;;;5011109;28;20072;-61
2022/09/08 03:54:53;;;;;;;2.15;0.45;;;18.90;83.80;;;;;;5010009;28;20489;-59
2022/09/08 03:57:25;;;;;;;1.40;0.60;;;18.90;83.90;;;;;;5011184;28;20144;-60
2022/09/08 03:59:52;;;;;;;0.45;0.40;;;18.90;84.20;;;;;;5010426;28;20280;-59
2022/09/08 04:02:19;;;;;;;1.83;0.55;;;18.90;84.00;;;;;;5011677;28;20517;-59
2022/09/08 04:04:53;;;;;;;0.43;0.40;;;18.90;84.00;;;;;;5011641;28;20079;-59
2022/09/08 04:07:21;;;;;;;2.17;0.70;;;18.90;84.20;;;;;;5009979;28;20038;-61
2022/09/08 04:09:47;;;;;;;0.68;0.50;;;18.90;84.10;;;;;;5010930;28;20092;-61
2022/09/08 04:12:14;;;;;;;1.20;0.50;;;18.90;84.00;;;;;;5008417;28;20046;-61
2022/09/08 04:14:40;;;;;;;1.35;0.60;;;18.90;84.10;;;;;;5009301;28;20042;-61
2022/09/08 04:17:06;;;;;;;0.50;0.50;;;18.90;85.00;;;;;;5012066;28;20049;-61
2022/09/08 04:19:32;;;;;;;0.82;0.40;;;18.90;84.10;;;;;;5009281;28;20040;-61
2022/09/08 04:21:59;;;;;;;2.50;0.55;;;18.90;84.20;;;;;;5010923;28;20037;-59
2022/09/08 04:24:25;;;;;;;1.85;0.40;;;18.80;84.10;;;;;;5005338;28;20405;-59
2022/09/08 04:26:50;;;;;;;0.55;0.35;;;18.90;84.20;;;;;;5007926;28;20036;-60
2022/09/08 04:29:16;;;;;;;0.63;0.30;;;18.80;84.10;;;;;;5009769;28;20406;-61
2022/09/08 04:31:43;;;;;;;2.15;0.30;;;18.80;84.20;;;;;;5012135;28;20514;-60
2022/09/08 04:34:09;;;;;;;0.65;0.40;;;18.90;84.20;;;;;;5014016;28;20037;-61
2022/09/08 04:36:35;;;;;;;0.45;0.40;;;18.80;84.10;;;;;;5010936;28;20513;-60
2022/09/08 04:39:01;;;;;;;1.05;0.38;;;18.80;84.30;;;;;;5013847;28;20041;-60
2022/09/08 04:41:31;;;;;;;1.35;0.50;;;18.80;84.30;;;;;;5010970;28;20046;-60
2022/09/08 04:44:00;;;;;;;0.90;0.45;;;18.80;84.50;;;;;;5013613;28;20042;-60
2022/09/08 04:46:26;;;;;;;1.00;0.40;;;18.80;84.50;;;;;;5011143;28;20053;-60
2022/09/08 04:48:53;;;;;;;0.70;0.40;;;18.80;84.50;;;;;;5015915;28;20040;-60
2022/09/08 04:51:19;;;;;;;0.68;0.68;;;18.80;84.60;;;;;;5011210;28;20064;-60
2022/09/08 04:53:46;;;;;;;0.47;0.47;;;18.80;84.80;;;;;;5013559;28;20132;-60
2022/09/08 04:56:13;;;;;;;1.33;0.50;;;18.80;84.80;;;;;;5013255;28;20522;-59
2022/09/08 04:58:41;;;;;;;1.27;0.50;;;18.70;84.90;;;;;;5012893;28;20041;-59
2022/09/08 05:01:12;;;;;;;0.70;0.60;;;18.70;84.90;;;;;;5012036;28;20037;-60
2022/09/08 05:03:39;;;;;;;0.98;0.60;;;18.70;85.00;;;;;;5014212;28;20052;-60
2022/09/08 05:06:15;;;;;;;0.60;0.60;;;18.70;85.00;;;;;;5012854;28;20034;-60
2022/09/08 05:08:50;;;;;;;1.13;0.60;;;18.70;85.30;;;;;;5013042;28;20569;-60
2022/09/08 05:11:17;;;;;;;2.00;0.80;;;18.70;85.30;;;;;;5009941;28;20049;-60
2022/09/08 05:13:43;;;;;;;0.70;0.70;;;18.70;85.00;;;;;;5013225;28;20034;-60
2022/09/08 05:16:14;;;;;;;0.73;0.73;;;18.70;85.00;;;;;;5013405;28;20041;-61
2022/09/08 05:18:45;;;;;;;2.33;0.90;;;18.70;85.20;;;;;;5015463;28;20056;-59
2022/09/08 05:21:11;;;;;;;2.33;1.10;;;18.70;85.30;;;;;;5011358;28;20124;-59
2022/09/08 05:23:37;;;;;;;1.10;0.95;;;18.70;85.30;;;;;;5010258;28;20044;-60
2022/09/08 05:26:08;;;;;;;1.55;0.98;;;18.70;85.40;;;;;;5013979;28;20038;-59
2022/09/08 05:28:36;;;;;;;2.60;1.10;;;18.70;85.90;;;;;;5013516;28;20061;-60
2022/09/08 05:31:02;;;;;;;1.48;0.73;;;18.60;85.60;;;;;;5011980;28;20053;-60
2022/09/08 05:33:29;;;;;;;2.17;0.70;;;18.70;85.70;;;;;;5014018;28;20184;-62
2022/09/08 05:35:54;;;;;;;1.20;0.85;;;18.60;85.70;;;;;;5011810;28;20037;-60
2022/09/08 05:38:20;;;;;;;0.60;0.60;;;18.70;85.70;;;;;;5011317;28;20390;-59
2022/09/08 05:40:46;;;;;;;1.20;0.70;;;18.60;85.70;;;;;;5011710;28;20158;-61
2022/09/08 05:43:12;;;;;;;1.25;0.45;;;18.70;85.80;;;;;;5013388;28;20084;-61
2022/09/08 05:45:37;;;;;;;1.10;0.68;;;18.60;85.70;;;;;;5009489;28;20033;-62
2022/09/08 05:48:03;;;;;;;2.63;0.50;;;18.60;86.00;;;;;;5013694;28;20125;-61
2022/09/08 05:50:34;;;;;;;1.27;0.30;;;18.60;86.00;;;;;;5012196;28;20595;-61
2022/09/08 05:53:03;;;;;;;0.85;0.50;;;18.60;85.90;;;;;;5013634;28;20041;-62
2022/09/08 05:55:29;;;;;;;1.45;0.52;;;18.60;85.90;;;;;;5010125;28;20037;-61
2022/09/08 05:57:56;;;;;;;0.73;0.40;;;18.60;85.70;;;;;;5013317;28;20104;-60
2022/09/08 06:00:22;;;;;;;0.38;0.30;;;18.60;85.90;;;;;;5010638;28;20485;-61
2022/09/08 06:02:49;;;;;;;1.38;0.40;;;18.50;85.90;;;;;;5011745;28;20058;-61
2022/09/08 06:05:16;;;;;;;0.68;0.40;;;18.50;85.90;;;;;;5010830;28;20069;-60
2022/09/08 06:07:41;;;;;;;0.68;0.40;;;18.50;86.10;;;;;;5014171;28;20042;-61
2022/09/08 06:10:08;;;;;;;0.57;0.30;;;18.50;86.20;;;;;;5010604;28;20409;-60
2022/09/08 06:12:33;;;;;;;0.55;0.40;;;18.50;86.30;;;;;;5009332;28;20069;-61
2022/09/08 06:14:59;;;;;;;0.30;0.28;;;18.50;86.40;;;;;;5012433;28;20580;-59
2022/09/08 06:17:24;;;;;;;0.30;0.30;;;18.50;86.30;;;;;;5013087;28;20045;-60
2022/09/08 06:19:50;;;;;;;0.25;0.25;;;18.50;86.20;;;;;;5012902;28;20057;-59
2022/09/08 06:22:15;;;;;;;1.45;0.25;;;18.50;86.20;;;;;;5011571;28;20052;-60
2022/09/08 06:24:41;;;;;;;0.40;0.40;;;18.50;86.20;;;;;;5012315;28;20030;-60
2022/09/08 06:27:31;;;;;;;0.98;0.40;;;18.50;86.10;;;;;;5011808;28;20112;-60
2022/09/08 06:30:03;;;;;;;0.65;0.30;;;18.50;86.60;;;;;;5010302;28;20029;-61
2022/09/08 06:32:43;;;;;;;1.23;0.30;;;18.50;86.20;;;;;;5010987;28;20072;-60
2022/09/08 06:35:14;;;;;;;1.25;0.30;;;18.50;86.20;;;;;;5012283;28;20581;-60
2022/09/08 06:37:54;;;;;;;0.52;0.28;;;18.50;86.30;;;;;;5010457;28;20497;-60
2022/09/08 06:40:22;;;;;;;0.75;0.20;;;18.50;86.60;;;;;;5012976;28;20666;-61
2022/09/08 06:43:23;;;;;;;2.08;0.30;;;18.50;86.30;;;;;;5013518;28;20044;-60
2022/09/08 06:45:55;;;;;;;0.38;0.20;;;18.50;86.90;;;;;;5015539;28;20057;-59
2022/09/08 06:48:24;;;;;;;0.45;0.20;;;18.50;86.40;;;;;;5013727;28;20102;-60
2022/09/08 06:51:16;;;;;;;1.67;0.30;;;18.50;86.50;;;;;;5016207;28;20049;-59
2022/09/08 06:54:02;;;;;;;0.30;0.20;;;18.50;86.70;;;;;;5013707;28;20508;-61
2022/09/08 06:56:40;;;;;;;0.55;0.20;;;18.60;86.10;;;;;;5011003;28;20120;-60
2022/09/08 06:59:31;;;;;;;1.38;0.30;;;18.50;86.20;;;;;;5015447;28;20034;-61
2022/09/08 07:02:25;;;;;;;0.30;0.25;;;18.60;86.20;;;;;;5015960;28;20037;-61
2022/09/08 07:05:11;;;;;;;0.20;0.20;;;18.60;86.40;;;;;;5013334;28;20064;-60
2022/09/08 07:07:45;;;;;;;1.70;0.28;;;18.50;85.70;;;;;;5014298;28;20039;-60
2022/09/08 07:10:38;;;;;;;1.27;0.30;;;18.50;85.80;;;;;;5016225;28;20040;-61
2022/09/08 07:13:22;;;;;;;0.20;0.20;;;18.50;86.20;;;;;;5012597;28;20077;-59
2022/09/08 07:16:14;;;;;;;0.40;0.20;;;18.60;85.90;;;;;;5014661;28;20486;-61
2022/09/08 07:19:02;;;;;;;0.30;0.20;;;18.50;85.70;;;;;;5014655;28;20038;-61
2022/09/08 07:21:27;;;;;;;0.43;0.20;;;18.60;86.00;;;;;;5011962;28;20045;-59
2022/09/08 07:23:55;;;;;;;0.20;0.17;;;18.60;85.70;;;;;;5015346;28;20405;-60
2022/09/08 07:26:38;;;;;;;0.28;0.20;;;18.60;85.70;;;;;;5015047;28;20045;-60
2022/09/08 07:29:13;;;;;;;0.40;0.20;;;18.60;86.20;;;;;;5014879;28;20497;-61
2022/09/08 07:31:44;;;;;;;0.28;0.28;;;18.60;85.90;;;;;;5014683;28;20091;-60
2022/09/08 07:34:20;;;;;;;0.20;0.20;;;18.60;85.90;;;;;;5015532;28;20095;-59
2022/09/08 07:37:07;;;;;;;0.35;0.20;;;18.60;85.80;;;;;;5016014;28;20054;-60
2022/09/08 07:40:11;;;;;;;1.17;0.20;;;18.60;85.70;;;;;;5016513;28;20042;-60
2022/09/08 07:42:36;;;;;;;0.50;0.40;;;18.60;85.90;;;;;;5015236;28;20034;-60
2022/09/08 07:45:10;;;;;;;0.68;0.20;;;18.60;85.50;;;;;;5015420;28;20115;-60
2022/09/08 07:47:57;;;;;;;0.22;0.20;;;18.70;85.90;;;;;;5016157;28;20602;-59
2022/09/08 07:50:54;;;;;;;0.55;0.40;;;18.70;86.00;;;;;;5012923;28;20042;-59
2022/09/08 07:53:38;;;;;;;0.80;0.30;;;18.70;85.90;;;;;;5016150;28;20034;-60
2022/09/08 07:56:11;;;;;;;0.20;0.20;;;18.70;85.80;;;;;;5014613;28;20536;-60
2022/09/08 07:58:49;;;;;;;0.20;0.20;;;18.70;86.00;;;;;;5012248;28;20469;-59
2022/09/08 08:01:46;;;;;;;0.85;0.20;;;18.70;86.00;;;;;;5014090;28;20604;-59
2022/09/08 08:04:50;;;;;;;2.05;0.30;;;18.70;85.80;;;;;;5012859;28;20546;-59
2022/09/08 08:07:23;;;;;;;0.68;0.30;;;18.70;86.00;;;;;;5014311;28;20041;-59
2022/09/08 08:10:01;;;;;;;1.05;0.40;;;18.70;85.40;;;;;;5015360;28;20502;-59
2022/09/08 08:12:31;;;;;;;0.55;0.30;;;18.80;85.20;;;;;;5011588;28;20088;-60
2022/09/08 08:15:06;;;;;;;1.00;0.38;;;18.80;85.20;;;;;;5016165;28;20038;-59
2022/09/08 08:17:52;;;;;;;0.50;0.30;;;18.80;85.50;;;;;;5012880;28;20053;-60
2022/09/08 08:20:26;;;;;;;0.45;0.30;;;18.80;85.70;;;;;;5012867;28;20069;-60
2022/09/08 08:22:59;;;;;;;1.95;0.40;;;18.80;85.70;;;;;;5014553;28;20030;-61
2022/09/08 08:25:45;;;;;;;1.08;0.30;;;18.90;85.40;;;;;;5011661;28;20509;-61
2022/09/08 08:28:16;;;;;;;0.65;0.30;;;18.90;85.50;;;;;;5013093;28;20409;-59
2022/09/08 08:31:26;;;;;;;0.50;0.30;;;18.90;85.20;;;;;;5011607;28;20405;-59
2022/09/08 08:34:06;;;;;;;1.92;0.40;;;18.90;85.70;;;;;;5015540;28;20556;-60
2022/09/08 08:36:37;;;;;;;0.40;0.35;;;19.00;87.20;;;;;;5011714;28;20080;-59
2022/09/08 08:39:20;;;;;;;0.60;0.30;;;19.00;86.20;;;;;;5015895;28;20087;-59
2022/09/08 08:41:45;;;;;;;0.55;0.40;;;19.10;86.40;;;;;;5014415;28;20042;-61
2022/09/08 08:44:17;;;;;;;1.73;0.40;;;19.10;85.90;;;;;;5012461;28;20076;-60
2022/09/08 08:47:10;;;;;;;0.73;0.50;;;19.20;85.60;;;;;;5012570;28;20065;-60
2022/09/08 08:50:07;;;;;;;0.70;0.40;;;19.30;85.00;;;;;;5014417;28;20107;-60
2022/09/08 08:52:42;;;;;;;0.85;0.35;;;19.30;84.50;;;;;;5013294;28;20060;-58
2022/09/08 08:55:33;;;;;;;0.50;0.50;;;19.30;84.30;;;;;;5015061;28;20319;-61
2022/09/08 08:58:01;;;;;;;2.15;0.40;;;19.40;83.80;;;;;;5015275;28;20034;-61
2022/09/08 09:00:59;;;;;;;0.30;0.30;;;19.40;83.90;;;;;;5014238;28;20497;-60
2022/09/08 09:03:39;;;;;;;0.52;0.40;;;19.50;84.40;;;;;;5009232;28;20056;-61
2022/09/08 09:06:25;;;;;;;0.57;0.47;;;19.60;84.10;;;;;;5013118;28;20347;-60
2022/09/08 09:09:26;;;;;;;1.38;0.40;;;19.60;83.80;;;;;;5014813;28;20042;-61
2022/09/08 09:11:55;;;;;;;0.75;0.40;;;19.70;83.40;;;;;;5011392;28;20121;-60
2022/09/08 09:15:15;;;;;;;0.80;0.30;;;19.80;83.10;;;;;;5012054;28;20048;-59
2022/09/08 09:18:02;;;;;;;0.93;0.20;;;19.80;83.20;;;;;;5012634;28;20091;-60
2022/09/08 09:20:49;;;;;;;1.17;0.40;;;19.90;83.20;;;;;;5011858;28;20084;-60
2022/09/08 09:23:45;;;;;;;2.00;0.50;;;20.00;82.10;;;;;;5014100;28;20034;-59
2022/09/08 09:26:10;;;;;;;;;;;20.00;81.70;;;;;;5012938;28;20031;-59
2022/09/08 09:29:00;;;;;;;1.45;0.57;;;20.10;82.00;;;;;;5012068;28;20388;-61
2022/09/08 09:31:26;;;;;;;0.98;0.40;;;20.20;82.10;;;;;;5011607;28;20046;-61
2022/09/08 09:34:10;;;;;;;0.63;0.32;;;20.20;81.50;;;;;;5013733;28;20065;-58
2022/09/08 09:37:13;;;;;;;1.00;0.55;;;20.30;80.00;;;;;;5012944;28;20150;-62
2022/09/08 09:40:23;;;;;;;0.45;0.45;;;20.30;80.30;;;;;;5013687;28;20038;-61
2022/09/08 09:43:16;;;;;;;1.58;0.50;;;20.40;80.40;;;;;;5015017;28;20033;-59
2022/09/08 09:46:13;;;;;;;0.52;0.40;;;20.50;79.30;;;;;;5011437;28;20041;-59
2022/09/08 09:49:10;;;;;;;2.25;0.40;;;20.60;79.40;;;;;;5011687;28;20041;-60
2022/09/08 09:51:53;;;;;;;0.82;0.50;;;20.60;79.80;;;;;;5011625;28;20069;-61
2022/09/08 09:54:21;;;;;;;0.93;0.50;;;20.70;78.20;;;;;;5012263;28;22089;-59
2022/09/08 09:56:53;;;;;;;2.72;0.50;;;20.70;78.40;;;;;;5010129;28;20790;-61
2022/09/08 09:59:57;;;;;;;2.72;0.60;;;20.80;77.80;;;;;;5014306;28;20038;-61
2022/09/08 10:02:42;;;;;;;0.85;0.40;;;20.90;76.20;;;;;;5013483;28;20052;-60
2022/09/08 10:05:41;;;;;;;0.70;0.57;;;20.90;76.70;;;;;;5011044;28;20067;-60
2022/09/08 10:08:36;;;;;;;1.80;0.50;;;21.10;77.60;;;;;;5014265;28;20077;-61
2022/09/08 10:11:01;;;;;;;1.55;0.60;;;21.20;77.50;;;;;;5023702;28;20037;-61
2022/09/08 10:13:47;;;;;;;1.20;0.50;;;21.20;76.40;;;;;;5027482;28;20047;-61
2022/09/08 10:16:30;;;;;;;0.55;0.50;;;21.30;75.90;;;;;;5032548;28;20037;-60
2022/09/08 10:19:31;;;;;;;1.30;0.50;;;21.40;75.30;;;;;;5032234;28;20032;-60
2022/09/08 10:22:42;;;;;;;1.20;0.45;;;21.50;75.30;;;;;;5033195;28;20049;-61
2022/09/08 10:25:41;;;;;;;0.60;0.50;;;21.50;75.60;;;;;;5019418;28;20022;-61
2022/09/08 10:28:34;;;;;;;1.45;0.60;;;21.70;73.40;;;;;;5030786;28;20037;-61
2022/09/08 10:31:16;;;;;;;2.42;0.50;;;21.70;73.30;;;;;;5012389;28;20124;-62
2022/09/08 10:34:13;;;;;;;1.05;0.43;;;21.80;74.10;;;;;;5012661;28;20510;-61
2022/09/08 10:37:10;;;;;;;0.85;0.50;;;21.90;73.30;;;;;;5011664;28;20038;-61
2022/09/08 10:40:06;;;;;;;0.80;0.40;;;22.00;73.80;;;;;;5013734;28;20494;-61
2022/09/08 10:42:54;;;;;;;0.65;0.40;;;22.10;71.30;;;;;;5012616;28;20498;-60
2022/09/08 10:45:38;;;;;;;0.82;0.40;;;22.10;70.80;;;;;;5013609;28;20045;-61
2022/09/08 10:48:19;;;;;;;1.67;0.38;;;22.20;70.80;;;;;;5013211;28;20110;-60
2022/09/08 10:50:52;;;;;;;0.30;0.30;;;22.30;70.60;;;;;;5010453;28;20033;-63
2022/09/08 10:53:36;;;;;;;1.25;0.60;;;22.30;69.20;;;;;;5012376;28;20531;-60
2022/09/08 10:56:12;;;;;;;0.65;0.40;;;22.30;69.20;;;;;;5012809;28;20563;-62
2022/09/08 10:58:56;;;;;;;0.40;0.38;;;22.30;69.00;;;;;;5013001;28;20120;-61
2022/09/08 11:01:24;;;;;;;0.50;0.43;;;22.40;69.50;;;;;;5013504;28;20041;-62
2022/09/08 11:04:18;;;;;;;1.17;0.30;;;22.40;70.00;;;;;;5010260;28;20045;-61
2022/09/08 11:06:58;;;;;;;2.60;0.45;;;22.50;68.80;;;;;;5011759;28;20044;-60
2022/09/08 11:09:38;;;;;;;0.73;0.30;;;22.50;68.50;;;;;;5011138;28;20069;-61
2022/09/08 11:12:19;;;;;;;0.80;0.35;;;22.60;68.40;;;;;;5010964;28;20121;-63
2022/09/08 11:15:11;;;;;;;1.05;0.40;;;22.70;67.60;;;;;;5013795;28;20037;-61
2022/09/08 11:17:46;;;;;;;0.50;0.30;;;22.80;67.70;;;;;;5010258;28;20576;-61
2022/09/08 11:20:23;;;;;;;1.08;0.52;;;22.80;66.50;;;;;;5009140;28;20406;-61
2022/09/08 11:23:37;;;;;;;0.60;0.40;;;22.90;66.20;;;;;;5012400;28;20200;-61
2022/09/08 11:26:02;;;;;;;1.10;0.30;;;23.00;64.80;;;;;;5012703;28;20368;-62
2022/09/08 11:28:59;;;;;;;1.02;0.50;;;23.00;66.00;;;;;;5017576;28;20038;-60
2022/09/08 11:31:32;;;;;;;0.60;0.47;;;22.90;65.90;;;;;;5014290;28;20029;-62
2022/09/08 11:34:21;;;;;;;2.00;0.65;;;22.90;67.70;;;;;;5017115;28;20038;-62
2022/09/08 11:37:05;;;;;;;1.55;0.75;;;22.70;67.40;;;;;;5015619;28;20042;-61
2022/09/08 11:39:56;;;;;;;1.55;0.70;;;22.50;68.10;;;;;;5015696;28;20029;-62
2022/09/08 11:42:56;;;;;;;0.93;0.63;;;22.20;70.30;;;;;;5014744;28;20041;-62
2022/09/08 11:45:50;;;;;;;1.70;0.80;;;21.90;69.50;;;;;;5015695;28;20029;-62
2022/09/08 11:48:21;;;;;;;1.20;0.65;;;21.70;70.90;;;;;;5019112;28;20038;-63
2022/09/08 11:51:19;;;;;;;4.43;1.10;;;21.50;72.40;;;;;;5010449;28;20037;-62
2022/09/08 11:53:59;;;;;;;1.13;0.60;;;21.40;73.30;;;;;;5025362;28;20094;-61
2022/09/08 11:56:36;;;;;;;1.10;0.88;;;21.40;72.20;;;;;;5032890;28;20032;-61
2022/09/08 11:59:25;;;;;;;1.17;0.60;;;21.40;73.50;;;;;;5036489;28;20029;-61
2022/09/08 12:01:50;;;;;;;0.70;0.60;;;21.40;73.50;;;;;;5034513;28;21540;-61
2022/09/08 12:04:16;;;;;;;1.23;0.70;;;21.30;73.70;;;;;;5035261;28;20497;-60
2022/09/08 12:07:18;;;;;;;0.90;0.60;;;21.30;74.90;;;;;;5032334;28;20045;-61
2022/09/08 12:09:53;;;;;;;1.58;0.70;;;21.30;75.00;;;;;;5033058;28;20034;-59
2022/09/08 12:12:53;;;;;;;0.88;0.55;;;21.30;75.60;;;;;;5031930;28;20387;-61
2022/09/08 12:16:00;;;;;;;1.10;0.80;;;21.30;74.90;;;;;;5037156;28;20033;-61
2022/09/08 12:18:52;;;;;;;1.48;0.50;;;21.30;73.70;;;;;;5034936;28;20044;-60
2022/09/08 12:21:37;;;;;;;2.03;0.70;;;21.40;72.90;;;;;;5029899;28;20417;-59
2022/09/08 12:24:21;;;;;;;1.25;0.40;;;21.40;73.30;;;;;;5033953;28;20067;-62
2022/09/08 12:26:55;;;;;;;1.30;0.43;;;21.50;71.40;;;;;;5028160;28;20150;-61
2022/09/08 12:29:26;;;;;;;1.45;0.40;;;21.50;72.30;;;;;;5036238;28;20436;-61
2022/09/08 12:32:08;;;;;;;1.25;0.50;;;21.60;71.60;;;;;;5030376;28;20064;-61
2022/09/08 12:34:51;;;;;;;1.88;0.40;;;21.80;70.90;;;;;;5034982;28;20115;-59
2022/09/08 12:37:39;;;;;;;1.45;0.30;;;21.90;68.30;;;;;;5032474;28;20033;-62
2022/09/08 12:40:31;;;;;;;0.82;0.38;;;22.00;68.50;;;;;;5034734;28;20032;-62
2022/09/08 12:43:00;;;;;;;0.40;0.30;;;22.20;66.10;;;;;;5032424;28;20041;-62
2022/09/08 12:45:28;;;;;;;1.50;0.40;;;22.30;67.40;;;;;;5034574;28;20044;-62
2022/09/08 12:48:28;;;;;;;0.68;0.30;;;22.40;65.90;;;;;;5035307;28;20526;-61
2022/09/08 12:51:19;;;;;;;0.38;0.30;;;22.50;66.20;;;;;;5032186;28;20037;-62
2022/09/08 12:54:03;;;;;;;0.43;0.30;;;22.50;64.40;;;;;;5032389;28;20408;-61
2022/09/08 12:56:40;;;;;;;0.90;0.23;;;22.70;63.50;;;;;;5033361;28;20069;-61
2022/09/08 12:59:34;;;;;;;1.23;0.40;;;22.70;63.40;;;;;;5033065;28;20057;-60
2022/09/08 13:02:25;;;;;;;0.63;0.40;;;22.80;62.20;;;;;;5035746;28;20041;-62
2022/09/08 13:05:05;;;;;;;1.08;0.28;;;22.80;60.70;;;;;;5032942;28;20480;-60
2022/09/08 13:07:47;;;;;;;1.55;0.20;;;22.80;61.50;;;;;;5030083;28;20898;-62
2022/09/08 13:10:21;;;;;;;0.90;0.22;;;22.80;59.90;;;;;;5033092;28;20049;-60
2022/09/08 13:13:20;;;;;;;0.90;0.30;;;22.90;59.50;;;;;;5028146;28;20037;-62
2022/09/08 13:16:15;;;;;;;1.27;0.25;;;22.90;59.30;;;;;;5033847;28;20063;-62
2022/09/08 13:19:07;;;;;;;3.17;0.20;;;23.00;59.50;;;;;;5030217;28;20041;-62
2022/09/08 13:21:38;;;;;;;0.57;0.20;;;23.00;59.20;;;;;;5031256;28;20509;-61
2022/09/08 13:24:10;;;;;;;0.82;0.22;;;23.00;59.40;;;;;;5034491;28;20068;-62
2022/09/08 13:27:00;;;;;;;0.57;0.10;;;23.10;59.70;;;;;;5031732;28;20069;-61
2022/09/08 13:29:47;;;;;;;0.43;0.10;;;23.10;58.20;;;;;;5034103;28;20110;-62
2022/09/08 13:32:22;;;;;;;0.43;0.20;;;23.10;55.40;;;;;;5033468;28;20390;-62
2022/09/08 13:35:02;;;;;;;1.77;0.20;;;23.20;56.00;;;;;;5030617;28;20037;-62
2022/09/08 13:37:55;;;;;;;1.15;0.40;;;23.20;55.40;;;;;;5030171;28;20131;-62